createdAt,value
2023-05-13T00:04:54.860Z,9.10
2023-05-13T00:09:56.750Z,9.00
2023-05-13T00:14:58.480Z,9.00
2023-05-13T00:20:01.042Z,9.00
2023-05-13T00:25:02.906Z,9.10
2023-05-13T00:30:05.665Z,9.10
2023-05-13T00:35:07.807Z,9.10
2023-05-13T00:40:21.102Z,9.10
2023-05-13T00:45:23.038Z,9.00
2023-05-13T00:50:25.109Z,9.00
2023-05-13T00:55:26.946Z,8.90
2023-05-13T01:00:31.272Z,8.80
2023-05-13T01:06:04.490Z,8.60
2023-05-13T01:11:21.829Z,8.50
2023-05-13T01:16:53.275Z,8.60
2023-05-13T01:21:55.671Z,8.60
2023-05-13T01:26:59.240Z,8.60
2023-05-13T01:32:02.596Z,8.50
2023-05-13T01:37:04.921Z,8.50
2023-05-13T01:42:07.169Z,8.40
2023-05-13T01:47:09.159Z,8.50
2023-05-13T01:52:11.361Z,8.50
2023-05-13T01:57:13.597Z,8.50
2023-05-13T02:02:16.216Z,8.50
2023-05-13T02:07:18.464Z,8.50
2023-05-13T02:12:21.881Z,8.50
2023-05-13T02:17:23.707Z,8.40
2023-05-13T02:22:25.683Z,8.40
2023-05-13T02:27:27.476Z,8.40
2023-05-13T02:32:29.306Z,8.40
2023-05-13T02:37:31.469Z,8.40
2023-05-13T02:42:37.301Z,8.50
2023-05-13T02:47:40.114Z,8.40
2023-05-13T02:52:42.629Z,8.50
2023-05-13T02:57:44.597Z,8.50
2023-05-13T03:02:47.362Z,8.60
2023-05-13T03:07:49.330Z,8.60
2023-05-13T03:12:51.302Z,8.70
2023-05-13T03:17:54.210Z,8.70
2023-05-13T03:22:56.676Z,8.70
2023-05-13T03:27:58.598Z,8.80
2023-05-13T03:33:03.964Z,8.80
2023-05-13T03:38:06.319Z,8.80
2023-05-13T03:43:12.108Z,8.80
2023-05-13T03:48:17.590Z,8.80
2023-05-13T03:53:19.532Z,8.80
2023-05-13T03:58:22.904Z,8.80
2023-05-13T04:03:24.964Z,8.80
2023-05-13T04:08:27.373Z,8.80
2023-05-13T04:13:29.146Z,8.90
2023-05-13T04:18:31.720Z,8.90
2023-05-13T04:23:33.686Z,8.90
2023-05-13T04:28:36.179Z,9.00
2023-05-13T04:33:38.364Z,9.10
2023-05-13T04:38:40.296Z,9.20
2023-05-13T04:43:42.124Z,9.30
2023-05-13T04:48:48.207Z,9.30
2023-05-13T04:53:51.015Z,9.50
2023-05-13T04:58:53.173Z,9.60
2023-05-13T05:03:58.304Z,9.70
2023-05-13T05:09:00.400Z,9.80
2023-05-13T05:14:02.446Z,9.90
2023-05-13T05:19:04.837Z,10.00
2023-05-13T05:24:07.148Z,10.10
2023-05-13T05:29:08.953Z,10.20
2023-05-13T05:34:12.653Z,10.30
2023-05-13T05:39:14.794Z,10.40
2023-05-13T05:44:16.634Z,10.50
2023-05-13T05:49:19.395Z,10.60
2023-05-13T05:54:21.398Z,10.70
2023-05-13T05:59:23.453Z,10.80
2023-05-13T06:04:25.963Z,11.00
2023-05-13T06:09:27.839Z,11.10
2023-05-13T06:14:29.987Z,11.20
2023-05-13T06:19:31.756Z,11.40
2023-05-13T06:24:33.532Z,11.50
2023-05-13T06:29:35.552Z,11.60
2023-05-13T06:34:39.918Z,11.70
2023-05-13T06:39:42.192Z,11.80
2023-05-13T06:44:44.107Z,11.80
2023-05-13T06:49:45.956Z,11.90
2023-05-13T06:54:48.218Z,12.10
2023-05-13T06:59:50.052Z,12.50
2023-05-13T07:04:52.439Z,12.80
2023-05-13T07:09:54.226Z,12.90
2023-05-13T07:14:56.079Z,13.00
2023-05-13T07:19:57.942Z,13.10
2023-05-13T07:24:59.717Z,13.00
2023-05-13T07:30:01.517Z,12.90
2023-05-13T07:35:04.331Z,13.00
2023-05-13T07:40:07.093Z,13.10
2023-05-13T07:45:09.346Z,13.20
2023-05-13T07:50:11.166Z,13.20
2023-05-13T07:55:13.069Z,13.20
2023-05-13T08:00:15.735Z,13.30
2023-05-13T08:05:17.516Z,13.30
2023-05-13T08:10:19.317Z,13.30
2023-05-13T08:15:21.348Z,13.30
2023-05-13T08:20:29.519Z,13.20
2023-05-13T08:25:31.450Z,13.00
2023-05-13T08:30:33.248Z,13.00
2023-05-13T08:35:35.034Z,12.90
2023-05-13T08:40:37.618Z,12.80
2023-05-13T08:45:40.382Z,12.90
2023-05-13T08:50:44.139Z,12.90
2023-05-13T08:55:45.919Z,12.90
2023-05-13T09:00:49.637Z,12.90
2023-05-13T09:05:51.427Z,12.90
2023-05-13T09:10:53.682Z,12.90
2023-05-13T09:15:55.632Z,13.10
2023-05-13T09:20:57.503Z,13.10
2023-05-13T09:25:59.282Z,13.10
2023-05-13T09:31:01.072Z,13.10
2023-05-13T09:36:04.488Z,13.20
2023-05-13T09:41:06.408Z,13.50
2023-05-13T09:46:09.327Z,13.80
2023-05-13T09:51:12.035Z,14.00
2023-05-13T09:56:13.775Z,14.10
2023-05-13T10:01:15.746Z,14.00
2023-05-13T10:06:18.168Z,13.70
2023-05-13T10:11:21.505Z,13.60
2023-05-13T10:16:24.520Z,13.70
2023-05-13T10:21:29.513Z,13.80
2023-05-13T10:26:32.359Z,13.80
2023-05-13T10:31:35.026Z,14.00
2023-05-13T10:36:39.837Z,14.00
2023-05-13T10:42:19.236Z,13.90
2023-05-13T10:47:21.134Z,14.00
2023-05-13T10:52:22.968Z,14.00
2023-05-13T10:57:29.828Z,14.00
2023-05-13T11:02:32.544Z,14.00
2023-05-13T11:07:39.149Z,14.10
2023-05-13T11:12:40.929Z,14.10
2023-05-13T11:17:45.936Z,14.20
2023-05-13T11:22:47.860Z,14.30
2023-05-13T11:27:50.003Z,14.30
2023-05-13T11:32:55.931Z,14.30
2023-05-13T11:38:02.244Z,14.30
2023-05-13T11:43:05.825Z,14.20
2023-05-13T11:48:22.126Z,14.20
2023-05-13T11:53:23.987Z,14.20
2023-05-13T11:58:25.849Z,14.40
2023-05-13T12:03:28.414Z,14.50
2023-05-13T12:08:33.012Z,14.60
2023-05-13T12:13:35.635Z,14.60
2023-05-13T12:18:37.821Z,14.70
2023-05-13T12:23:41.519Z,14.60
2023-05-13T12:28:43.400Z,14.60
2023-05-13T12:33:46.910Z,14.60
2023-05-13T12:39:09.098Z,14.60
2023-05-13T12:44:14.291Z,14.70
2023-05-13T12:49:16.160Z,14.80
2023-05-13T12:54:18.325Z,14.90
2023-05-13T12:59:20.150Z,15.10
2023-05-13T13:04:22.071Z,15.10
2023-05-13T13:09:23.958Z,15.20
2023-05-13T13:14:26.173Z,15.40
2023-05-13T13:19:28.261Z,15.50
2023-05-13T13:24:30.126Z,15.50
2023-05-13T13:29:32.401Z,15.40
2023-05-13T13:34:34.425Z,15.40
2023-05-13T13:39:36.573Z,15.40
2023-05-13T13:44:39.562Z,15.70
2023-05-13T13:49:41.528Z,16.10
2023-05-13T13:54:43.470Z,16.20
2023-05-13T13:59:45.475Z,16.30
2023-05-13T14:04:48.636Z,16.40
2023-05-13T14:09:50.480Z,16.30
2023-05-13T14:14:52.310Z,16.20
2023-05-13T14:19:55.496Z,16.00
2023-05-13T14:24:58.797Z,16.00
2023-05-13T14:30:00.618Z,16.00
2023-05-13T14:35:02.425Z,16.00
2023-05-13T14:40:04.627Z,15.90
2023-05-13T14:45:07.137Z,15.80
2023-05-13T14:50:09.150Z,15.60
2023-05-13T14:55:11.897Z,15.70
2023-05-13T15:00:14.185Z,15.80
2023-05-13T15:05:16.183Z,15.70
2023-05-13T15:10:18.241Z,15.60
2023-05-13T15:15:20.345Z,15.50
2023-05-13T15:20:22.513Z,15.40
2023-05-13T15:25:24.631Z,15.20
2023-05-13T15:30:26.425Z,15.10
2023-05-13T15:35:28.236Z,15.10
2023-05-13T15:40:30.108Z,15.00
2023-05-13T15:45:31.843Z,15.00
2023-05-13T15:50:34.281Z,14.90
2023-05-13T15:55:37.464Z,15.00
2023-05-13T16:00:39.241Z,15.00
2023-05-13T16:05:41.091Z,14.90
2023-05-13T16:10:43.101Z,14.90
2023-05-13T16:15:44.889Z,14.70
2023-05-13T16:20:46.882Z,14.70
2023-05-13T16:25:48.728Z,14.60
2023-05-13T16:30:51.352Z,14.40
2023-05-13T16:35:53.214Z,14.30
2023-05-13T16:40:55.318Z,14.20
2023-05-13T16:45:57.074Z,14.20
2023-05-13T16:50:58.838Z,14.10
2023-05-13T16:56:01.032Z,14.00
2023-05-13T17:01:02.831Z,14.00
2023-05-13T17:06:07.211Z,14.00
2023-05-13T17:11:15.916Z,13.90
2023-05-13T17:16:17.695Z,13.90
2023-05-13T17:21:19.460Z,13.90
2023-05-13T17:26:21.990Z,13.80
2023-05-13T17:31:24.982Z,13.70
2023-05-13T17:36:26.782Z,13.70
2023-05-13T17:41:28.624Z,13.60
2023-05-13T17:46:30.449Z,13.50
2023-05-13T17:51:32.401Z,13.30
2023-05-13T17:56:34.190Z,13.40
2023-05-13T18:01:35.942Z,13.30
2023-05-13T18:06:37.786Z,13.20
2023-05-13T18:11:39.512Z,13.10
2023-05-13T18:16:41.352Z,13.10
2023-05-13T18:21:43.168Z,13.00
2023-05-13T18:26:44.898Z,13.00
2023-05-13T18:31:46.777Z,13.00
2023-05-13T18:36:51.869Z,12.90
2023-05-13T18:41:53.849Z,12.90
2023-05-13T18:46:55.624Z,12.80
2023-05-13T18:51:57.576Z,12.80
2023-05-13T18:56:59.484Z,12.80
2023-05-13T19:02:01.387Z,12.70
2023-05-13T19:07:03.476Z,12.70
2023-05-13T19:12:05.524Z,12.70
2023-05-13T19:17:07.434Z,12.70
2023-05-13T19:22:09.278Z,12.60
2023-05-13T19:27:11.254Z,12.60
2023-05-13T19:32:13.092Z,12.60
2023-05-13T19:37:15.365Z,12.60
2023-05-13T19:42:17.166Z,12.60
2023-05-13T19:47:19.003Z,12.50
2023-05-13T19:52:20.886Z,12.40
2023-05-13T19:57:22.769Z,12.50
2023-05-13T20:02:24.536Z,12.40
2023-05-13T20:07:26.380Z,12.40
2023-05-13T20:12:28.284Z,12.40
2023-05-13T20:17:30.321Z,12.30
2023-05-13T20:22:32.257Z,12.30
2023-05-13T20:27:34.830Z,12.30
2023-05-13T20:32:36.721Z,12.20
2023-05-13T20:37:38.547Z,12.30
2023-05-13T20:42:40.402Z,12.20
2023-05-13T20:47:42.170Z,12.10
2023-05-13T20:52:44.019Z,12.10
2023-05-13T20:57:45.936Z,12.10
2023-05-13T21:02:48.715Z,12.10
2023-05-13T21:07:50.693Z,12.10
2023-05-13T21:12:52.471Z,12.00
2023-05-13T21:17:54.575Z,11.90
2023-05-13T21:22:56.377Z,11.90
2023-05-13T21:27:58.140Z,11.90
2023-05-13T21:32:59.936Z,11.90
2023-05-13T21:38:11.591Z,11.80
2023-05-13T21:43:14.591Z,11.80
2023-05-13T21:48:16.641Z,11.50
2023-05-13T21:53:18.528Z,11.30
2023-05-13T21:58:21.914Z,11.20
2023-05-13T22:03:25.189Z,11.20
2023-05-13T22:08:27.044Z,11.10
2023-05-13T22:13:28.876Z,11.00
2023-05-13T22:18:30.950Z,10.90
2023-05-13T22:23:33.075Z,10.70
2023-05-13T22:28:34.830Z,10.70
2023-05-13T22:33:36.617Z,10.50
2023-05-13T22:38:38.960Z,10.50
2023-05-13T22:43:40.823Z,10.50
2023-05-13T22:48:42.619Z,10.40
2023-05-13T22:53:44.400Z,10.40
2023-05-13T22:58:46.175Z,10.50
2023-05-13T23:03:47.949Z,10.50
2023-05-13T23:08:49.701Z,10.50
2023-05-13T23:13:51.520Z,10.30
2023-05-13T23:18:55.175Z,10.00
2023-05-13T23:23:57.926Z,10.00
2023-05-13T23:28:59.683Z,9.90
2023-05-13T23:34:01.882Z,9.80
2023-05-13T23:39:03.857Z,9.50
2023-05-13T23:44:05.698Z,9.40
2023-05-13T23:49:07.491Z,9.30
2023-05-13T23:54:09.296Z,9.20
2023-05-13T23:59:11.065Z,9.20
